sensor_id;sensor_type;location;lat;lon;timestamp;P1;durP1;ratioP1;P2;durP2;ratioP2
12848;SDS011;6493;50.928;7.172;2023-04-29T00:01:54;1.30;;;1.20;;
12848;SDS011;6493;50.928;7.172;2023-04-29T00:07:01;1.47;;;1.37;;
12848;SDS011;6493;50.928;7.172;2023-04-29T00:12:05;1.50;;;1.40;;
12848;SDS011;6493;50.928;7.172;2023-04-29T00:17:08;1.80;;;1.57;;
12848;SDS011;6493;50.928;7.172;2023-04-29T00:22:13;1.50;;;1.40;;
12848;SDS011;6493;50.928;7.172;2023-04-29T00:27:17;1.70;;;1.50;;
12848;SDS011;6493;50.928;7.172;2023-04-29T00:32:21;1.73;;;1.63;;
12848;SDS011;6493;50.928;7.172;2023-04-29T00:37:26;1.80;;;1.60;;
12848;SDS011;6493;50.928;7.172;2023-04-29T00:42:30;1.87;;;1.67;;
12848;SDS011;6493;50.928;7.172;2023-04-29T00:47:34;1.30;;;1.20;;
12848;SDS011;6493;50.928;7.172;2023-04-29T00:52:39;1.70;;;1.53;;
12848;SDS011;6493;50.928;7.172;2023-04-29T00:57:44;1.37;;;1.20;;
12848;SDS011;6493;50.928;7.172;2023-04-29T01:02:49;1.80;;;1.53;;
12848;SDS011;6493;50.928;7.172;2023-04-29T01:07:58;1.53;;;1.43;;
12848;SDS011;6493;50.928;7.172;2023-04-29T01:13:11;1.60;;;1.50;;
12848;SDS011;6493;50.928;7.172;2023-04-29T01:18:26;1.50;;;1.30;;
12848;SDS011;6493;50.928;7.172;2023-04-29T01:23:35;3.33;;;1.60;;
12848;SDS011;6493;50.928;7.172;2023-04-29T01:28:42;1.10;;;1.03;;
12848;SDS011;6493;50.928;7.172;2023-04-29T01:33:53;1.47;;;1.30;;
12848;SDS011;6493;50.928;7.172;2023-04-29T01:39:13;1.70;;;1.60;;
12848;SDS011;6493;50.928;7.172;2023-04-29T01:44:30;1.50;;;1.40;;
12848;SDS011;6493;50.928;7.172;2023-04-29T01:49:36;1.90;;;1.50;;
12848;SDS011;6493;50.928;7.172;2023-04-29T01:54:42;2.43;;;2.23;;
12848;SDS011;6493;50.928;7.172;2023-04-29T01:59:46;3.37;;;3.07;;
12848;SDS011;6493;50.928;7.172;2023-04-29T02:05:13;4.43;;;3.40;;
12848;SDS011;6493;50.928;7.172;2023-04-29T02:10:25;3.50;;;3.03;;
12848;SDS011;6493;50.928;7.172;2023-04-29T02:15:42;3.40;;;3.10;;
12848;SDS011;6493;50.928;7.172;2023-04-29T02:20:46;3.73;;;3.10;;
12848;SDS011;6493;50.928;7.172;2023-04-29T02:25:52;2.93;;;2.47;;
12848;SDS011;6493;50.928;7.172;2023-04-29T02:30:58;3.20;;;2.90;;
12848;SDS011;6493;50.928;7.172;2023-04-29T02:36:02;4.20;;;3.63;;
12848;SDS011;6493;50.928;7.172;2023-04-29T02:41:07;4.47;;;3.97;;
12848;SDS011;6493;50.928;7.172;2023-04-29T02:46:11;5.50;;;4.40;;
12848;SDS011;6493;50.928;7.172;2023-04-29T02:51:15;5.03;;;4.10;;
12848;SDS011;6493;50.928;7.172;2023-04-29T02:56:20;5.97;;;4.57;;
12848;SDS011;6493;50.928;7.172;2023-04-29T03:01:24;4.00;;;3.60;;
12848;SDS011;6493;50.928;7.172;2023-04-29T03:06:28;6.10;;;4.63;;
12848;SDS011;6493;50.928;7.172;2023-04-29T03:11:33;6.70;;;4.77;;
12848;SDS011;6493;50.928;7.172;2023-04-29T03:16:37;6.07;;;5.13;;
12848;SDS011;6493;50.928;7.172;2023-04-29T03:21:41;5.83;;;4.03;;
12848;SDS011;6493;50.928;7.172;2023-04-29T03:26:46;5.50;;;4.17;;
12848;SDS011;6493;50.928;7.172;2023-04-29T03:31:54;7.63;;;5.70;;
12848;SDS011;6493;50.928;7.172;2023-04-29T03:36:58;7.40;;;5.57;;
12848;SDS011;6493;50.928;7.172;2023-04-29T03:42:04;7.47;;;5.77;;
12848;SDS011;6493;50.928;7.172;2023-04-29T03:47:08;7.93;;;7.13;;
12848;SDS011;6493;50.928;7.172;2023-04-29T03:52:12;6.70;;;5.90;;
12848;SDS011;6493;50.928;7.172;2023-04-29T03:57:18;7.53;;;6.10;;
12848;SDS011;6493;50.928;7.172;2023-04-29T04:02:23;9.97;;;8.37;;
12848;SDS011;6493;50.928;7.172;2023-04-29T04:07:27;8.70;;;6.33;;
12848;SDS011;6493;50.928;7.172;2023-04-29T04:12:50;7.67;;;6.27;;
12848;SDS011;6493;50.928;7.172;2023-04-29T04:17:55;6.43;;;5.53;;
12848;SDS011;6493;50.928;7.172;2023-04-29T04:22:59;6.20;;;5.20;;
12848;SDS011;6493;50.928;7.172;2023-04-29T04:28:05;7.73;;;5.57;;
12848;SDS011;6493;50.928;7.172;2023-04-29T04:33:30;6.50;;;4.87;;
12848;SDS011;6493;50.928;7.172;2023-04-29T04:38:35;7.87;;;5.33;;
12848;SDS011;6493;50.928;7.172;2023-04-29T04:43:45;6.60;;;4.83;;
12848;SDS011;6493;50.928;7.172;2023-04-29T04:49:00;6.67;;;4.83;;
12848;SDS011;6493;50.928;7.172;2023-04-29T04:54:06;6.07;;;4.40;;
12848;SDS011;6493;50.928;7.172;2023-04-29T04:59:12;6.03;;;4.27;;
12848;SDS011;6493;50.928;7.172;2023-04-29T05:04:15;6.60;;;4.70;;
12848;SDS011;6493;50.928;7.172;2023-04-29T05:09:19;6.37;;;5.47;;
12848;SDS011;6493;50.928;7.172;2023-04-29T05:14:25;8.73;;;6.10;;
12848;SDS011;6493;50.928;7.172;2023-04-29T05:19:30;5.87;;;4.63;;
12848;SDS011;6493;50.928;7.172;2023-04-29T05:24:36;5.83;;;4.50;;
12848;SDS011;6493;50.928;7.172;2023-04-29T05:29:41;4.13;;;3.73;;
12848;SDS011;6493;50.928;7.172;2023-04-29T05:34:46;4.77;;;3.87;;
12848;SDS011;6493;50.928;7.172;2023-04-29T05:39:50;3.63;;;3.00;;
12848;SDS011;6493;50.928;7.172;2023-04-29T05:44:56;5.53;;;4.10;;
12848;SDS011;6493;50.928;7.172;2023-04-29T05:50:00;6.57;;;3.80;;
12848;SDS011;6493;50.928;7.172;2023-04-29T05:55:03;4.90;;;3.90;;
12848;SDS011;6493;50.928;7.172;2023-04-29T06:00:10;4.40;;;4.00;;
12848;SDS011;6493;50.928;7.172;2023-04-29T06:05:17;3.03;;;2.57;;
12848;SDS011;6493;50.928;7.172;2023-04-29T06:10:39;4.43;;;3.60;;
12848;SDS011;6493;50.928;7.172;2023-04-29T06:15:45;3.50;;;3.20;;
12848;SDS011;6493;50.928;7.172;2023-04-29T06:20:52;3.73;;;2.93;;
12848;SDS011;6493;50.928;7.172;2023-04-29T06:25:56;3.50;;;3.20;;
12848;SDS011;6493;50.928;7.172;2023-04-29T06:31:01;2.83;;;2.40;;
12848;SDS011;6493;50.928;7.172;2023-04-29T06:36:05;2.83;;;2.50;;
12848;SDS011;6493;50.928;7.172;2023-04-29T06:41:33;3.00;;;2.60;;
12848;SDS011;6493;50.928;7.172;2023-04-29T06:46:41;2.87;;;2.33;;
12848;SDS011;6493;50.928;7.172;2023-04-29T06:52:01;2.43;;;2.23;;
12848;SDS011;6493;50.928;7.172;2023-04-29T06:57:06;2.90;;;2.60;;
12848;SDS011;6493;50.928;7.172;2023-04-29T07:02:11;2.80;;;2.57;;
12848;SDS011;6493;50.928;7.172;2023-04-29T07:07:14;2.70;;;2.50;;
12848;SDS011;6493;50.928;7.172;2023-04-29T07:12:18;3.67;;;2.70;;
12848;SDS011;6493;50.928;7.172;2023-04-29T07:17:23;3.50;;;3.20;;
12848;SDS011;6493;50.928;7.172;2023-04-29T07:22:27;2.40;;;2.20;;
12848;SDS011;6493;50.928;7.172;2023-04-29T07:27:31;2.20;;;1.93;;
12848;SDS011;6493;50.928;7.172;2023-04-29T07:32:37;2.67;;;2.40;;
12848;SDS011;6493;50.928;7.172;2023-04-29T07:37:41;2.80;;;2.50;;
12848;SDS011;6493;50.928;7.172;2023-04-29T07:42:46;3.00;;;2.70;;
12848;SDS011;6493;50.928;7.172;2023-04-29T07:47:51;2.57;;;2.37;;
12848;SDS011;6493;50.928;7.172;2023-04-29T07:52:55;2.77;;;2.50;;
12848;SDS011;6493;50.928;7.172;2023-04-29T07:58:01;2.37;;;2.17;;
12848;SDS011;6493;50.928;7.172;2023-04-29T08:03:06;2.73;;;2.50;;
12848;SDS011;6493;50.928;7.172;2023-04-29T08:08:10;3.00;;;2.70;;
12848;SDS011;6493;50.928;7.172;2023-04-29T08:13:13;3.13;;;2.83;;
12848;SDS011;6493;50.928;7.172;2023-04-29T08:18:18;3.30;;;3.00;;
12848;SDS011;6493;50.928;7.172;2023-04-29T08:23:23;2.80;;;2.60;;
12848;SDS011;6493;50.928;7.172;2023-04-29T08:28:26;3.50;;;3.20;;
12848;SDS011;6493;50.928;7.172;2023-04-29T08:33:32;3.77;;;2.97;;
12848;SDS011;6493;50.928;7.172;2023-04-29T08:38:35;3.50;;;3.20;;
12848;SDS011;6493;50.928;7.172;2023-04-29T08:43:39;3.40;;;2.83;;
12848;SDS011;6493;50.928;7.172;2023-04-29T08:48:44;3.20;;;2.87;;
12848;SDS011;6493;50.928;7.172;2023-04-29T08:53:48;4.23;;;3.83;;
12848;SDS011;6493;50.928;7.172;2023-04-29T08:58:52;3.53;;;3.23;;
12848;SDS011;6493;50.928;7.172;2023-04-29T09:04:03;3.53;;;3.23;;
12848;SDS011;6493;50.928;7.172;2023-04-29T09:09:13;3.43;;;3.13;;
12848;SDS011;6493;50.928;7.172;2023-04-29T09:14:20;3.07;;;2.77;;
12848;SDS011;6493;50.928;7.172;2023-04-29T09:19:29;3.30;;;3.00;;
12848;SDS011;6493;50.928;7.172;2023-04-29T09:24:34;2.90;;;2.70;;
12848;SDS011;6493;50.928;7.172;2023-04-29T09:29:38;3.30;;;2.73;;
12848;SDS011;6493;50.928;7.172;2023-04-29T09:40:26;2.67;;;2.47;;
12848;SDS011;6493;50.928;7.172;2023-04-29T09:45:33;2.87;;;2.63;;
12848;SDS011;6493;50.928;7.172;2023-04-29T09:50:39;2.80;;;2.60;;
12848;SDS011;6493;50.928;7.172;2023-04-29T09:55:56;4.07;;;3.17;;
12848;SDS011;6493;50.928;7.172;2023-04-29T10:01:01;3.03;;;2.77;;
12848;SDS011;6493;50.928;7.172;2023-04-29T10:06:07;3.30;;;3.00;;
12848;SDS011;6493;50.928;7.172;2023-04-29T10:11:11;4.00;;;3.33;;
12848;SDS011;6493;50.928;7.172;2023-04-29T10:16:20;3.73;;;3.40;;
12848;SDS011;6493;50.928;7.172;2023-04-29T10:21:31;3.57;;;3.07;;
12848;SDS011;6493;50.928;7.172;2023-04-29T10:26:35;3.60;;;3.30;;
12848;SDS011;6493;50.928;7.172;2023-04-29T10:31:41;3.87;;;3.57;;
12848;SDS011;6493;50.928;7.172;2023-04-29T10:36:48;5.27;;;4.77;;
12848;SDS011;6493;50.928;7.172;2023-04-29T10:41:51;4.10;;;3.80;;
12848;SDS011;6493;50.928;7.172;2023-04-29T10:52:22;5.83;;;5.23;;
12848;SDS011;6493;50.928;7.172;2023-04-29T10:57:25;4.67;;;4.27;;
12848;SDS011;6493;50.928;7.172;2023-04-29T11:02:29;5.97;;;5.37;;
12848;SDS011;6493;50.928;7.172;2023-04-29T11:07:34;6.70;;;5.83;;
12848;SDS011;6493;50.928;7.172;2023-04-29T11:12:38;4.50;;;4.00;;
12848;SDS011;6493;50.928;7.172;2023-04-29T11:17:41;4.87;;;4.30;;
12848;SDS011;6493;50.928;7.172;2023-04-29T11:22:50;6.10;;;4.93;;
12848;SDS011;6493;50.928;7.172;2023-04-29T11:27:57;4.30;;;3.90;;
12848;SDS011;6493;50.928;7.172;2023-04-29T11:33:02;4.47;;;4.07;;
12848;SDS011;6493;50.928;7.172;2023-04-29T11:38:08;4.50;;;4.10;;
12848;SDS011;6493;50.928;7.172;2023-04-29T11:43:15;5.40;;;4.20;;
12848;SDS011;6493;50.928;7.172;2023-04-29T11:48:19;4.93;;;3.90;;
12848;SDS011;6493;50.928;7.172;2023-04-29T11:53:25;4.80;;;3.57;;
12848;SDS011;6493;50.928;7.172;2023-04-29T11:58:29;4.57;;;3.50;;
12848;SDS011;6493;50.928;7.172;2023-04-29T12:03:33;4.90;;;4.10;;
12848;SDS011;6493;50.928;7.172;2023-04-29T12:08:39;5.50;;;4.27;;
12848;SDS011;6493;50.928;7.172;2023-04-29T12:13:42;4.57;;;3.57;;
12848;SDS011;6493;50.928;7.172;2023-04-29T12:18:46;3.90;;;3.07;;
12848;SDS011;6493;50.928;7.172;2023-04-29T12:23:51;3.87;;;3.33;;
12848;SDS011;6493;50.928;7.172;2023-04-29T12:28:56;3.03;;;2.73;;
12848;SDS011;6493;50.928;7.172;2023-04-29T12:34:02;4.80;;;3.63;;
12848;SDS011;6493;50.928;7.172;2023-04-29T12:39:11;4.37;;;3.47;;
12848;SDS011;6493;50.928;7.172;2023-04-29T12:44:15;5.47;;;3.60;;
12848;SDS011;6493;50.928;7.172;2023-04-29T12:49:18;3.97;;;3.57;;
12848;SDS011;6493;50.928;7.172;2023-04-29T12:54:23;4.10;;;3.70;;
12848;SDS011;6493;50.928;7.172;2023-04-29T12:59:27;4.53;;;4.00;;
12848;SDS011;6493;50.928;7.172;2023-04-29T13:04:31;4.27;;;3.87;;
12848;SDS011;6493;50.928;7.172;2023-04-29T13:09:36;4.33;;;3.90;;
12848;SDS011;6493;50.928;7.172;2023-04-29T13:14:42;5.40;;;4.50;;
12848;SDS011;6493;50.928;7.172;2023-04-29T13:19:46;4.23;;;3.80;;
12848;SDS011;6493;50.928;7.172;2023-04-29T13:24:54;4.00;;;3.60;;
12848;SDS011;6493;50.928;7.172;2023-04-29T13:29:58;5.10;;;3.93;;
12848;SDS011;6493;50.928;7.172;2023-04-29T13:35:01;4.33;;;3.73;;
12848;SDS011;6493;50.928;7.172;2023-04-29T13:40:07;4.30;;;3.90;;
12848;SDS011;6493;50.928;7.172;2023-04-29T13:45:21;4.60;;;4.20;;
12848;SDS011;6493;50.928;7.172;2023-04-29T13:50:25;4.40;;;4.00;;
12848;SDS011;6493;50.928;7.172;2023-04-29T13:55:50;5.03;;;4.40;;
12848;SDS011;6493;50.928;7.172;2023-04-29T14:00:57;4.73;;;4.13;;
12848;SDS011;6493;50.928;7.172;2023-04-29T14:06:03;4.87;;;3.60;;
12848;SDS011;6493;50.928;7.172;2023-04-29T14:11:09;3.90;;;3.50;;
12848;SDS011;6493;50.928;7.172;2023-04-29T14:16:13;3.87;;;3.47;;
12848;SDS011;6493;50.928;7.172;2023-04-29T14:21:17;3.53;;;3.23;;
12848;SDS011;6493;50.928;7.172;2023-04-29T14:26:24;3.57;;;3.27;;
12848;SDS011;6493;50.928;7.172;2023-04-29T14:31:30;3.57;;;3.27;;
12848;SDS011;6493;50.928;7.172;2023-04-29T14:36:36;2.87;;;2.60;;
12848;SDS011;6493;50.928;7.172;2023-04-29T14:41:41;4.20;;;3.57;;
12848;SDS011;6493;50.928;7.172;2023-04-29T14:46:45;4.53;;;3.40;;
12848;SDS011;6493;50.928;7.172;2023-04-29T14:51:49;3.43;;;3.13;;
12848;SDS011;6493;50.928;7.172;2023-04-29T14:56:54;3.07;;;2.77;;
12848;SDS011;6493;50.928;7.172;2023-04-29T15:01:57;3.13;;;2.87;;
12848;SDS011;6493;50.928;7.172;2023-04-29T15:07:01;3.67;;;3.37;;
12848;SDS011;6493;50.928;7.172;2023-04-29T15:12:06;4.47;;;3.67;;
12848;SDS011;6493;50.928;7.172;2023-04-29T15:17:10;3.83;;;2.90;;
12848;SDS011;6493;50.928;7.172;2023-04-29T15:22:13;2.93;;;2.67;;
12848;SDS011;6493;50.928;7.172;2023-04-29T15:27:18;3.20;;;2.90;;
12848;SDS011;6493;50.928;7.172;2023-04-29T15:32:22;2.90;;;2.43;;
12848;SDS011;6493;50.928;7.172;2023-04-29T15:37:32;2.57;;;2.37;;
12848;SDS011;6493;50.928;7.172;2023-04-29T15:42:37;2.87;;;2.43;;
12848;SDS011;6493;50.928;7.172;2023-04-29T15:47:40;3.20;;;2.77;;
12848;SDS011;6493;50.928;7.172;2023-04-29T15:52:44;3.00;;;2.50;;
12848;SDS011;6493;50.928;7.172;2023-04-29T15:57:49;2.50;;;2.30;;
12848;SDS011;6493;50.928;7.172;2023-04-29T16:02:52;2.43;;;2.23;;
12848;SDS011;6493;50.928;7.172;2023-04-29T16:07:56;2.50;;;2.30;;
12848;SDS011;6493;50.928;7.172;2023-04-29T16:13:01;2.20;;;2.00;;
12848;SDS011;6493;50.928;7.172;2023-04-29T16:18:04;2.43;;;2.23;;
12848;SDS011;6493;50.928;7.172;2023-04-29T16:23:08;2.97;;;2.27;;
12848;SDS011;6493;50.928;7.172;2023-04-29T16:28:13;2.60;;;2.40;;
12848;SDS011;6493;50.928;7.172;2023-04-29T16:33:18;2.80;;;2.40;;
12848;SDS011;6493;50.928;7.172;2023-04-29T16:38:21;3.00;;;2.23;;
12848;SDS011;6493;50.928;7.172;2023-04-29T16:43:26;2.67;;;2.30;;
12848;SDS011;6493;50.928;7.172;2023-04-29T16:48:30;2.40;;;2.20;;
12848;SDS011;6493;50.928;7.172;2023-04-29T16:53:34;2.50;;;2.30;;
12848;SDS011;6493;50.928;7.172;2023-04-29T16:58:39;2.20;;;2.00;;
12848;SDS011;6493;50.928;7.172;2023-04-29T17:03:42;2.20;;;2.00;;
12848;SDS011;6493;50.928;7.172;2023-04-29T17:08:47;2.43;;;2.23;;
12848;SDS011;6493;50.928;7.172;2023-04-29T17:13:55;1.90;;;1.80;;
12848;SDS011;6493;50.928;7.172;2023-04-29T17:18:59;2.00;;;1.90;;
12848;SDS011;6493;50.928;7.172;2023-04-29T17:24:03;2.43;;;2.23;;
12848;SDS011;6493;50.928;7.172;2023-04-29T17:29:08;2.67;;;2.47;;
12848;SDS011;6493;50.928;7.172;2023-04-29T17:34:13;2.40;;;2.20;;
12848;SDS011;6493;50.928;7.172;2023-04-29T17:39:20;2.67;;;2.47;;
12848;SDS011;6493;50.928;7.172;2023-04-29T17:44:25;2.50;;;2.30;;
12848;SDS011;6493;50.928;7.172;2023-04-29T17:49:29;2.43;;;2.23;;
12848;SDS011;6493;50.928;7.172;2023-04-29T17:54:33;2.10;;;2.00;;
12848;SDS011;6493;50.928;7.172;2023-04-29T17:59:37;2.00;;;1.90;;
12848;SDS011;6493;50.928;7.172;2023-04-29T18:04:41;2.13;;;2.03;;
12848;SDS011;6493;50.928;7.172;2023-04-29T18:09:45;2.17;;;1.97;;
12848;SDS011;6493;50.928;7.172;2023-04-29T18:14:50;1.90;;;1.80;;
12848;SDS011;6493;50.928;7.172;2023-04-29T18:19:53;2.00;;;1.80;;
12848;SDS011;6493;50.928;7.172;2023-04-29T18:24:57;1.93;;;1.83;;
12848;SDS011;6493;50.928;7.172;2023-04-29T18:30:02;2.33;;;2.13;;
12848;SDS011;6493;50.928;7.172;2023-04-29T18:35:08;2.47;;;2.27;;
12848;SDS011;6493;50.928;7.172;2023-04-29T18:40:11;2.23;;;2.03;;
12848;SDS011;6493;50.928;7.172;2023-04-29T18:45:16;1.90;;;1.80;;
12848;SDS011;6493;50.928;7.172;2023-04-29T18:50:20;1.90;;;1.80;;
12848;SDS011;6493;50.928;7.172;2023-04-29T18:55:24;3.00;;;2.20;;
12848;SDS011;6493;50.928;7.172;2023-04-29T19:00:29;2.10;;;1.90;;
12848;SDS011;6493;50.928;7.172;2023-04-29T19:05:33;2.30;;;2.10;;
12848;SDS011;6493;50.928;7.172;2023-04-29T19:10:36;2.37;;;2.00;;
12848;SDS011;6493;50.928;7.172;2023-04-29T19:15:41;2.20;;;2.10;;
12848;SDS011;6493;50.928;7.172;2023-04-29T19:20:45;2.30;;;2.10;;
12848;SDS011;6493;50.928;7.172;2023-04-29T19:25:49;1.90;;;1.80;;
12848;SDS011;6493;50.928;7.172;2023-04-29T19:30:54;1.90;;;1.80;;
12848;SDS011;6493;50.928;7.172;2023-04-29T19:35:58;2.33;;;2.13;;
12848;SDS011;6493;50.928;7.172;2023-04-29T19:41:01;2.17;;;1.97;;
12848;SDS011;6493;50.928;7.172;2023-04-29T19:46:06;2.43;;;2.23;;
12848;SDS011;6493;50.928;7.172;2023-04-29T19:51:10;2.63;;;2.43;;
12848;SDS011;6493;50.928;7.172;2023-04-29T19:56:14;2.20;;;2.03;;
12848;SDS011;6493;50.928;7.172;2023-04-29T20:01:19;2.47;;;2.27;;
12848;SDS011;6493;50.928;7.172;2023-04-29T20:06:23;2.43;;;2.23;;
12848;SDS011;6493;50.928;7.172;2023-04-29T20:11:26;2.77;;;2.57;;
12848;SDS011;6493;50.928;7.172;2023-04-29T20:16:32;2.90;;;2.70;;
12848;SDS011;6493;50.928;7.172;2023-04-29T20:21:36;2.50;;;2.30;;
12848;SDS011;6493;50.928;7.172;2023-04-29T20:26:41;2.60;;;2.40;;
12848;SDS011;6493;50.928;7.172;2023-04-29T20:31:46;2.50;;;2.30;;
12848;SDS011;6493;50.928;7.172;2023-04-29T20:36:49;3.73;;;2.47;;
12848;SDS011;6493;50.928;7.172;2023-04-29T20:41:53;2.57;;;2.37;;
12848;SDS011;6493;50.928;7.172;2023-04-29T20:46:59;2.97;;;2.77;;
12848;SDS011;6493;50.928;7.172;2023-04-29T20:52:02;2.93;;;2.73;;
12848;SDS011;6493;50.928;7.172;2023-04-29T20:57:07;3.03;;;2.83;;
12848;SDS011;6493;50.928;7.172;2023-04-29T21:02:12;3.10;;;2.90;;
12848;SDS011;6493;50.928;7.172;2023-04-29T21:07:16;3.37;;;3.07;;
12848;SDS011;6493;50.928;7.172;2023-04-29T21:12:20;3.10;;;2.80;;
12848;SDS011;6493;50.928;7.172;2023-04-29T21:17:27;3.73;;;3.43;;
12848;SDS011;6493;50.928;7.172;2023-04-29T21:22:30;4.03;;;3.40;;
12848;SDS011;6493;50.928;7.172;2023-04-29T21:27:34;4.13;;;3.60;;
12848;SDS011;6493;50.928;7.172;2023-04-29T21:32:39;3.50;;;3.27;;
12848;SDS011;6493;50.928;7.172;2023-04-29T21:37:42;3.50;;;3.20;;
12848;SDS011;6493;50.928;7.172;2023-04-29T21:42:46;3.17;;;2.87;;
12848;SDS011;6493;50.928;7.172;2023-04-29T21:47:53;3.17;;;2.97;;
12848;SDS011;6493;50.928;7.172;2023-04-29T21:52:59;3.27;;;2.77;;
12848;SDS011;6493;50.928;7.172;2023-04-29T21:58:04;3.03;;;2.83;;
12848;SDS011;6493;50.928;7.172;2023-04-29T22:03:10;2.47;;;2.37;;
12848;SDS011;6493;50.928;7.172;2023-04-29T22:08:13;3.03;;;2.80;;
12848;SDS011;6493;50.928;7.172;2023-04-29T22:13:17;3.07;;;2.87;;
12848;SDS011;6493;50.928;7.172;2023-04-29T22:18:22;2.93;;;2.63;;
12848;SDS011;6493;50.928;7.172;2023-04-29T22:23:25;2.97;;;2.77;;
12848;SDS011;6493;50.928;7.172;2023-04-29T22:28:29;3.20;;;3.00;;
12848;SDS011;6493;50.928;7.172;2023-04-29T22:33:34;2.87;;;2.67;;
12848;SDS011;6493;50.928;7.172;2023-04-29T22:38:38;3.43;;;3.13;;
12848;SDS011;6493;50.928;7.172;2023-04-29T22:43:41;3.30;;;3.00;;
12848;SDS011;6493;50.928;7.172;2023-04-29T22:48:46;3.07;;;2.87;;
12848;SDS011;6493;50.928;7.172;2023-04-29T22:53:50;2.93;;;2.73;;
12848;SDS011;6493;50.928;7.172;2023-04-29T22:58:54;2.80;;;2.60;;
12848;SDS011;6493;50.928;7.172;2023-04-29T23:03:59;3.03;;;2.83;;
12848;SDS011;6493;50.928;7.172;2023-04-29T23:09:02;3.60;;;3.30;;
12848;SDS011;6493;50.928;7.172;2023-04-29T23:14:06;3.27;;;2.97;;
12848;SDS011;6493;50.928;7.172;2023-04-29T23:19:12;2.97;;;2.70;;
12848;SDS011;6493;50.928;7.172;2023-04-29T23:24:15;3.60;;;3.30;;
12848;SDS011;6493;50.928;7.172;2023-04-29T23:29:19;2.90;;;2.70;;
12848;SDS011;6493;50.928;7.172;2023-04-29T23:34:24;3.20;;;3.00;;
12848;SDS011;6493;50.928;7.172;2023-04-29T23:39:27;3.60;;;3.10;;
12848;SDS011;6493;50.928;7.172;2023-04-29T23:44:31;3.30;;;3.03;;
12848;SDS011;6493;50.928;7.172;2023-04-29T23:49:36;3.70;;;3.40;;
12848;SDS011;6493;50.928;7.172;2023-04-29T23:54:39;3.67;;;3.37;;
12848;SDS011;6493;50.928;7.172;2023-04-29T23:59:43;5.37;;;3.67;;
